createdAt,value
2019-05-06T00:02:13.819Z,52.51
2019-05-06T00:04:40.256Z,53.07
2019-05-06T00:07:07.705Z,53.48
2019-05-06T00:09:35.137Z,53.87
2019-05-06T00:12:03.988Z,54.28
2019-05-06T00:14:30.043Z,54.67
2019-05-06T00:16:58.802Z,55.19
2019-05-06T00:19:24.968Z,55.33
2019-05-06T00:21:54.090Z,55.52
2019-05-06T00:24:19.930Z,55.66
2019-05-06T00:26:47.377Z,55.91
2019-05-06T00:29:14.989Z,56.00
2019-05-06T00:31:44.017Z,55.97
2019-05-06T00:34:09.956Z,55.87
2019-05-06T00:36:37.412Z,55.76
2019-05-06T00:39:04.889Z,55.64
2019-05-06T00:41:35.854Z,55.41
2019-05-06T00:43:59.822Z,55.24
2019-05-06T00:46:27.284Z,55.13
2019-05-06T00:48:54.735Z,55.05
2019-05-06T00:51:24.018Z,55.16
2019-05-06T00:53:50.201Z,55.10
2019-05-06T00:56:17.644Z,55.00
2019-05-06T00:58:45.096Z,54.98
2019-05-06T01:01:25.518Z,54.84
2019-05-06T01:03:40.052Z,54.71
2019-05-06T01:06:07.641Z,54.77
2019-05-06T01:08:35.149Z,54.81
2019-05-06T01:11:04.075Z,54.82
2019-05-06T01:13:30.106Z,54.72
2019-05-06T01:15:57.585Z,54.81
2019-05-06T01:18:25.038Z,54.93
2019-05-06T01:20:54.105Z,55.23
2019-05-06T01:23:20.130Z,55.40
2019-05-06T01:25:47.660Z,55.58
2019-05-06T01:28:15.260Z,55.61
2019-05-06T01:30:44.331Z,55.77
2019-05-06T01:33:10.277Z,55.94
2019-05-06T01:35:37.870Z,56.08
2019-05-06T01:38:10.985Z,56.25
2019-05-06T01:40:38.447Z,56.24
2019-05-06T01:43:07.706Z,56.44
2019-05-06T01:45:35.187Z,56.46
2019-05-06T01:48:04.019Z,56.65
2019-05-06T01:50:30.113Z,56.81
2019-05-06T01:52:57.618Z,56.80
2019-05-06T01:55:25.059Z,56.84
2019-05-06T01:57:54.417Z,56.97
2019-05-06T02:00:20.039Z,56.88
2019-05-06T02:02:47.483Z,56.82
2019-05-06T02:05:14.958Z,56.56
2019-05-06T02:07:44.099Z,56.50
2019-05-06T02:10:09.877Z,55.56
2019-05-06T02:12:37.390Z,54.67
2019-05-06T02:15:04.876Z,54.16
2019-05-06T02:17:34.371Z,53.97
2019-05-06T02:19:59.911Z,53.98
2019-05-06T02:22:37.320Z,54.17
2019-05-06T02:25:05.308Z,54.26
2019-05-06T02:27:34.127Z,54.44
2019-05-06T02:30:17.108Z,55.19
2019-05-06T02:32:49.169Z,55.61
2019-05-06T02:35:26.579Z,55.92
2019-05-06T02:37:54.987Z,55.99
2019-05-06T02:40:25.005Z,56.31
2019-05-06T02:42:49.908Z,56.11
2019-05-06T02:45:17.372Z,56.31
2019-05-06T02:47:45.010Z,56.28
2019-05-06T02:50:13.477Z,56.36
2019-05-06T02:52:43.740Z,56.55
2019-05-06T02:55:08.333Z,56.76
2019-05-06T03:00:18.821Z,57.25
2019-05-06T03:02:48.276Z,57.44
2019-05-06T03:05:13.877Z,57.65
2019-05-06T03:07:43.477Z,58.01
2019-05-06T03:10:13.005Z,58.42
2019-05-06T03:12:42.886Z,58.80
2019-05-06T03:15:07.602Z,59.25
2019-05-06T03:17:35.052Z,59.58
2019-05-06T03:20:04.350Z,60.09
2019-05-06T03:22:43.238Z,60.44
2019-05-06T03:25:13.046Z,60.52
2019-05-06T03:27:37.403Z,60.79
2019-05-06T03:30:06.449Z,61.01
2019-05-06T03:32:38.193Z,61.13
2019-05-06T03:35:25.131Z,60.69
2019-05-06T03:37:29.005Z,60.37
2019-05-06T03:39:56.463Z,60.41
2019-05-06T03:42:23.934Z,60.44
2019-05-06T03:44:53.240Z,60.43
2019-05-06T03:47:24.447Z,60.54
2019-05-06T03:49:54.608Z,60.51
2019-05-06T03:52:19.385Z,60.38
2019-05-06T03:54:46.833Z,60.38
2019-05-06T03:57:14.280Z,60.58
2019-05-06T03:59:43.540Z,60.69
2019-05-06T04:02:09.296Z,60.76
2019-05-06T04:04:36.748Z,61.02
2019-05-06T04:07:04.219Z,60.88
2019-05-06T04:09:33.524Z,60.86
2019-05-06T04:11:59.616Z,60.98
2019-05-06T04:14:27.155Z,61.00
2019-05-06T04:16:55.061Z,61.13
2019-05-06T04:19:23.687Z,61.26
2019-05-06T04:21:53.013Z,61.27
2019-05-06T04:27:19.421Z,60.72
2019-05-06T04:29:46.884Z,60.53
2019-05-06T04:32:14.430Z,60.54
2019-05-06T04:34:43.051Z,60.59
2019-05-06T04:37:09.381Z,60.59
2019-05-06T04:39:36.850Z,60.66
2019-05-06T04:42:04.297Z,60.63
2019-05-06T04:44:33.076Z,60.38
2019-05-06T04:46:59.241Z,60.25
2019-05-06T04:49:26.717Z,60.53
2019-05-06T04:51:54.423Z,60.57
2019-05-06T04:54:26.177Z,60.49
2019-05-06T04:56:49.203Z,60.39
2019-05-06T04:59:16.803Z,60.21
2019-05-06T05:01:45.639Z,60.03
2019-05-06T05:04:24.596Z,59.88
2019-05-06T05:06:39.272Z,59.66
2019-05-06T05:09:06.737Z,59.48
2019-05-06T05:11:34.240Z,59.48
2019-05-06T05:16:57.230Z,58.69
2019-05-06T05:19:24.736Z,58.36
2019-05-06T05:21:52.285Z,58.30
2019-05-06T05:24:19.747Z,58.29
2019-05-06T05:26:47.265Z,58.01
2019-05-06T05:29:14.845Z,57.62
2019-05-06T05:31:43.681Z,57.38
2019-05-06T05:34:09.866Z,57.45
2019-05-06T05:36:37.340Z,57.30
2019-05-06T05:39:04.842Z,57.21
2019-05-06T05:41:33.155Z,56.98
2019-05-06T05:43:59.848Z,56.80
2019-05-06T05:46:27.343Z,56.59
2019-05-06T05:49:05.729Z,56.45
2019-05-06T05:51:33.203Z,56.50
2019-05-06T05:54:02.182Z,56.23
2019-05-06T05:56:28.292Z,56.09
2019-05-06T05:58:55.803Z,55.68
2019-05-06T06:01:23.543Z,55.70
2019-05-06T06:03:52.823Z,55.72
2019-05-06T06:06:18.481Z,55.53
2019-05-06T06:08:45.954Z,55.34
2019-05-06T06:11:23.400Z,55.18
2019-05-06T06:13:52.270Z,54.96
2019-05-06T06:19:14.636Z,53.57
2019-05-06T06:21:42.930Z,53.68
2019-05-06T06:24:13.180Z,53.88
2019-05-06T06:26:40.268Z,54.18
2019-05-06T06:29:07.835Z,54.11
2019-05-06T06:31:38.809Z,53.83
2019-05-06T06:34:06.463Z,54.06
2019-05-06T06:36:44.655Z,54.13
2019-05-06T06:39:14.645Z,54.09
2019-05-06T06:41:42.460Z,53.75
2019-05-06T06:47:02.161Z,52.43
2019-05-06T06:49:29.421Z,51.99
2019-05-06T06:51:56.924Z,52.00
2019-05-06T06:54:24.382Z,51.97
2019-05-06T06:57:05.303Z,50.97
2019-05-06T06:59:19.828Z,50.84
2019-05-06T07:01:53.138Z,50.74
2019-05-06T07:04:35.355Z,50.77
2019-05-06T07:07:03.185Z,50.36
2019-05-06T07:09:32.287Z,50.21
2019-05-06T07:11:57.955Z,49.98
2019-05-06T07:14:25.399Z,50.04
2019-05-06T07:16:53.423Z,50.03
2019-05-06T07:19:20.574Z,49.89
2019-05-06T07:21:48.428Z,49.76
2019-05-06T07:24:15.931Z,49.08
2019-05-06T07:26:46.292Z,48.55
2019-05-06T07:29:23.111Z,48.21
2019-05-06T07:31:42.692Z,48.15
2019-05-06T07:34:08.913Z,48.05
2019-05-06T07:36:36.672Z,48.46
2019-05-06T07:39:04.456Z,48.02
2019-05-06T07:41:53.475Z,47.79
2019-05-06T07:47:15.769Z,46.23
2019-05-06T07:49:43.172Z,45.82
2019-05-06T07:52:12.322Z,45.92
2019-05-06T07:54:38.721Z,45.92
2019-05-06T07:57:06.206Z,45.12
2019-05-06T07:59:33.685Z,45.47
2019-05-06T08:02:02.304Z,45.42
2019-05-06T08:04:28.737Z,45.47
2019-05-06T08:06:56.243Z,45.15
2019-05-06T08:09:23.741Z,44.48
2019-05-06T08:11:53.014Z,44.72
2019-05-06T08:14:18.781Z,44.48
2019-05-06T08:16:49.188Z,43.83
2019-05-06T08:19:16.651Z,43.72
2019-05-06T08:21:44.681Z,43.88
2019-05-06T08:24:12.150Z,43.43
2019-05-06T08:26:39.643Z,43.43
2019-05-06T08:29:07.166Z,43.29
2019-05-06T08:31:34.627Z,42.86
2019-05-06T08:34:02.708Z,42.62
2019-05-06T08:36:35.241Z,42.58
2019-05-06T08:39:03.019Z,42.47
2019-05-06T08:41:30.226Z,42.85
2019-05-06T08:43:57.834Z,42.71
2019-05-06T08:46:26.251Z,42.52
2019-05-06T08:48:53.780Z,42.38
2019-05-06T08:51:26.983Z,42.00
2019-05-06T08:53:55.832Z,42.40
2019-05-06T08:56:23.327Z,42.32
2019-05-06T08:58:52.779Z,41.79
2019-05-06T09:01:22.398Z,40.62
2019-05-06T09:03:48.341Z,40.42
2019-05-06T09:06:26.942Z,40.52
2019-05-06T09:08:45.185Z,40.51
2019-05-06T09:11:12.683Z,39.78
2019-05-06T09:13:40.136Z,39.98
2019-05-06T09:16:07.593Z,39.85
2019-05-06T09:18:35.039Z,39.34
2019-05-06T09:21:03.053Z,40.12
2019-05-06T09:23:30.240Z,40.14
2019-05-06T09:25:57.756Z,40.00
2019-05-06T09:28:26.230Z,40.43
2019-05-06T09:30:53.718Z,40.14
2019-05-06T09:33:22.519Z,38.76
2019-05-06T09:35:48.668Z,38.54
2019-05-06T09:38:16.225Z,38.88
2019-05-06T09:40:43.671Z,38.88
2019-05-06T09:43:13.022Z,38.62
2019-05-06T09:45:38.665Z,38.08
2019-05-06T09:48:07.789Z,38.70
2019-05-06T09:50:36.045Z,38.38
2019-05-06T09:53:03.546Z,38.28
2019-05-06T09:55:32.542Z,37.26
2019-05-06T09:57:58.279Z,36.85
2019-05-06T10:00:25.989Z,36.63
2019-05-06T10:02:53.036Z,36.75
2019-05-06T10:05:20.061Z,37.03
2019-05-06T10:07:47.097Z,36.88
2019-05-06T10:10:14.171Z,36.47
2019-05-06T10:12:42.030Z,36.57
2019-05-06T10:15:08.388Z,36.11
2019-05-06T10:17:35.519Z,36.28
2019-05-06T10:20:03.083Z,35.15
2019-05-06T10:22:29.701Z,35.59
2019-05-06T10:24:56.743Z,35.05
2019-05-06T10:27:23.772Z,35.48
2019-05-06T10:29:52.246Z,35.78
2019-05-06T10:32:18.351Z,35.50
2019-05-06T10:34:45.563Z,34.39
2019-05-06T10:37:22.575Z,33.81
2019-05-06T10:39:52.514Z,34.26
2019-05-06T10:42:19.593Z,34.23
2019-05-06T10:44:46.582Z,33.00
2019-05-06T10:47:13.597Z,31.86
2019-05-06T10:49:42.086Z,31.81
2019-05-06T10:52:12.741Z,32.12
2019-05-06T10:54:39.238Z,31.67
2019-05-06T10:57:06.331Z,30.95
2019-05-06T10:59:33.413Z,31.15
2019-05-06T11:02:17.228Z,31.41
2019-05-06T11:04:44.304Z,31.04
2019-05-06T11:07:12.441Z,31.06
2019-05-06T11:09:38.978Z,31.81
2019-05-06T11:12:06.021Z,32.00
2019-05-06T11:14:33.539Z,31.27
2019-05-06T11:17:04.848Z,30.52
2019-05-06T11:19:28.212Z,31.21
2019-05-06T11:21:55.219Z,31.78
2019-05-06T11:24:23.165Z,31.65
2019-05-06T11:26:49.285Z,31.52
2019-05-06T11:29:33.960Z,31.48
2019-05-06T11:31:59.679Z,31.68
2019-05-06T11:34:29.369Z,31.29
2019-05-06T11:37:01.939Z,30.62
2019-05-06T11:39:29.129Z,31.16
2019-05-06T11:42:15.293Z,31.53
2019-05-06T11:44:23.876Z,30.90
2019-05-06T11:46:52.201Z,30.58
2019-05-06T11:49:17.431Z,30.51
2019-05-06T11:51:44.430Z,31.37
2019-05-06T11:54:17.474Z,31.96
2019-05-06T11:56:48.754Z,31.70
2019-05-06T11:59:05.710Z,31.46
2019-05-06T12:01:35.300Z,30.09
2019-05-06T12:04:02.902Z,30.06
2019-05-06T12:06:29.613Z,30.67
2019-05-06T12:08:57.653Z,30.05
2019-05-06T12:11:24.701Z,30.62
2019-05-06T12:13:53.265Z,31.61
2019-05-06T12:16:18.894Z,31.42
2019-05-06T12:18:45.948Z,30.81
2019-05-06T12:21:18.848Z,29.89
2019-05-06T12:23:44.325Z,29.21
2019-05-06T12:26:07.152Z,28.33
2019-05-06T12:28:34.640Z,28.34
2019-05-06T12:31:02.135Z,29.01
2019-05-06T12:33:32.888Z,28.73
2019-05-06T12:35:59.834Z,28.32
2019-05-06T12:38:31.205Z,27.88
2019-05-06T12:40:59.893Z,28.45
2019-05-06T12:43:42.835Z,28.02
2019-05-06T12:46:13.276Z,27.62
2019-05-06T12:48:39.179Z,26.82
2019-05-06T12:51:06.626Z,25.89
2019-05-06T12:53:34.068Z,25.36
2019-05-06T12:56:03.150Z,24.87
2019-05-06T12:58:28.989Z,24.55
2019-05-06T13:00:56.562Z,24.51
2019-05-06T13:03:24.033Z,25.10
2019-05-06T13:05:52.090Z,24.55
2019-05-06T13:08:20.549Z,24.54
2019-05-06T13:10:45.217Z,24.68
2019-05-06T13:13:12.732Z,24.65
2019-05-06T13:15:39.724Z,24.69
2019-05-06T13:18:07.646Z,25.25
2019-05-06T13:20:34.817Z,24.56
2019-05-06T13:23:08.699Z,24.16
2019-05-06T13:25:29.368Z,24.17
2019-05-06T13:27:56.461Z,23.99
2019-05-06T13:30:23.460Z,23.87
2019-05-06T13:32:52.390Z,24.16
2019-05-06T13:35:17.915Z,25.23
2019-05-06T13:37:44.923Z,26.14
2019-05-06T13:40:12.155Z,25.65
2019-05-06T13:42:39.024Z,25.67
2019-05-06T13:45:06.276Z,25.28
2019-05-06T13:47:48.809Z,24.68
2019-05-06T13:50:25.777Z,24.45
2019-05-06T13:53:07.664Z,24.44
2019-05-06T13:55:22.094Z,25.00
2019-05-06T13:57:47.428Z,24.23
2019-05-06T14:00:14.418Z,23.93
2019-05-06T14:02:43.813Z,23.61
2019-05-06T14:05:12.107Z,23.17
2019-05-06T14:07:37.347Z,23.44
2019-05-06T14:10:04.351Z,23.90
2019-05-06T14:12:33.152Z,24.50
2019-05-06T14:14:58.404Z,24.71
2019-05-06T14:17:25.600Z,24.63
2019-05-06T14:19:53.640Z,23.83
2019-05-06T14:22:23.051Z,23.61
2019-05-06T14:24:48.264Z,23.68
2019-05-06T14:27:15.304Z,23.41
2019-05-06T14:29:42.344Z,23.56
2019-05-06T14:32:09.373Z,23.59
2019-05-06T14:34:36.519Z,23.84
2019-05-06T14:37:03.594Z,24.04
2019-05-06T14:39:48.510Z,24.19
2019-05-06T14:41:58.919Z,24.20
2019-05-06T14:44:26.050Z,24.03
2019-05-06T14:47:03.932Z,23.74
2019-05-06T14:49:32.603Z,23.61
2019-05-06T14:51:58.141Z,24.32
2019-05-06T14:54:25.156Z,24.45
2019-05-06T14:56:53.349Z,24.81
2019-05-06T14:59:19.192Z,24.67
2019-05-06T15:01:46.217Z,24.65
2019-05-06T15:04:13.234Z,24.93
2019-05-06T15:06:42.320Z,24.61
2019-05-06T15:09:07.263Z,24.29
2019-05-06T15:11:34.478Z,24.53
2019-05-06T15:14:03.530Z,24.37
2019-05-06T15:16:28.732Z,24.51
2019-05-06T15:18:55.778Z,24.68
2019-05-06T15:21:37.123Z,24.65
2019-05-06T15:23:49.829Z,25.37
2019-05-06T15:26:16.826Z,25.58
2019-05-06T15:28:43.831Z,25.55
2019-05-06T15:31:14.398Z,25.25
2019-05-06T15:36:39.725Z,25.20
2019-05-06T15:39:06.712Z,25.14
2019-05-06T15:41:33.785Z,25.29
2019-05-06T15:44:02.827Z,25.57
2019-05-06T15:46:28.384Z,26.17
2019-05-06T15:48:55.470Z,25.72
2019-05-06T15:51:22.568Z,25.17
2019-05-06T15:53:49.689Z,25.04
2019-05-06T15:56:16.670Z,24.38
2019-05-06T15:58:43.649Z,24.29
2019-05-06T16:01:10.646Z,25.13
2019-05-06T16:03:37.666Z,25.60
2019-05-06T16:06:04.657Z,25.44
2019-05-06T16:08:32.142Z,25.44
2019-05-06T16:10:59.161Z,25.79
2019-05-06T16:13:25.899Z,25.90
2019-05-06T16:15:53.241Z,26.48
2019-05-06T16:18:19.933Z,26.41
2019-05-06T16:20:46.931Z,26.96
2019-05-06T16:23:16.465Z,27.01
2019-05-06T16:25:44.818Z,27.16
2019-05-06T16:28:12.806Z,27.19
2019-05-06T16:30:37.511Z,27.27
2019-05-06T16:33:04.542Z,27.28
2019-05-06T16:35:32.272Z,27.42
2019-05-06T16:37:58.785Z,27.58
2019-05-06T16:40:25.788Z,27.61
2019-05-06T16:42:54.133Z,27.82
2019-05-06T16:45:19.859Z,27.92
2019-05-06T16:47:46.953Z,27.90
2019-05-06T16:50:13.955Z,27.78
2019-05-06T16:52:44.806Z,28.02
2019-05-06T16:55:08.252Z,28.55
2019-05-06T16:57:35.382Z,29.22
2019-05-06T17:00:02.964Z,29.33
2019-05-06T17:02:32.399Z,29.50
2019-05-06T17:05:09.934Z,29.29
2019-05-06T17:07:37.115Z,29.10
2019-05-06T17:10:04.188Z,29.12
2019-05-06T17:12:32.258Z,28.88
2019-05-06T17:14:58.442Z,29.37
2019-05-06T17:17:38.890Z,29.73
2019-05-06T17:19:52.944Z,30.16
2019-05-06T17:22:19.521Z,30.07
2019-05-06T17:24:48.519Z,29.79
2019-05-06T17:27:13.570Z,29.59
2019-05-06T17:29:45.136Z,29.19
2019-05-06T17:32:12.139Z,29.53
2019-05-06T17:34:39.174Z,30.09
2019-05-06T17:37:07.887Z,30.58
2019-05-06T17:39:34.874Z,30.86
2019-05-06T17:42:01.879Z,30.99
2019-05-06T17:44:28.899Z,31.73
2019-05-06T17:47:12.123Z,31.98
2019-05-06T17:49:37.894Z,31.77
2019-05-06T17:52:05.381Z,31.79
2019-05-06T17:54:32.616Z,31.41
2019-05-06T17:57:02.256Z,31.77
2019-05-06T17:59:26.616Z,32.40
2019-05-06T18:01:53.763Z,32.73
2019-05-06T18:04:22.741Z,32.94
2019-05-06T18:06:47.843Z,33.04
2019-05-06T18:09:14.940Z,32.95
2019-05-06T18:11:43.790Z,33.01
2019-05-06T18:14:09.449Z,33.30
2019-05-06T18:16:36.956Z,33.55
2019-05-06T18:19:04.444Z,33.80
2019-05-06T18:21:31.913Z,33.82
2019-05-06T18:23:59.414Z,33.91
2019-05-06T18:26:26.874Z,34.15
2019-05-06T18:28:54.333Z,34.33
2019-05-06T18:31:22.195Z,34.79
2019-05-06T18:33:49.323Z,35.33
2019-05-06T18:36:16.775Z,36.19
2019-05-06T18:38:44.239Z,36.79
2019-05-06T18:41:12.047Z,37.28
2019-05-06T18:43:42.062Z,37.75
2019-05-06T18:46:07.552Z,38.23
2019-05-06T18:48:35.204Z,38.63
2019-05-06T18:51:03.021Z,38.57
2019-05-06T18:53:28.587Z,38.82
2019-05-06T18:55:55.660Z,39.44
2019-05-06T18:58:22.702Z,40.02
2019-05-06T19:00:50.154Z,40.82
2019-05-06T19:03:17.714Z,41.29
2019-05-06T19:05:45.182Z,41.84
2019-05-06T19:08:29.287Z,42.23
2019-05-06T19:10:56.753Z,42.91
2019-05-06T19:13:24.206Z,43.17
2019-05-06T19:15:52.623Z,43.19
2019-05-06T19:18:19.201Z,43.14
2019-05-06T19:20:46.661Z,42.34
2019-05-06T19:23:14.116Z,41.88
2019-05-06T19:25:42.858Z,41.36
2019-05-06T19:28:09.095Z,41.20
2019-05-06T19:30:36.647Z,41.16
2019-05-06T19:33:06.891Z,40.94
2019-05-06T19:35:33.123Z,40.36
2019-05-06T19:37:58.228Z,39.47
2019-05-06T19:40:25.682Z,39.22
2019-05-06T19:42:53.443Z,39.40
2019-05-06T19:45:22.441Z,38.91
2019-05-06T19:47:48.123Z,38.57
2019-05-06T19:50:15.595Z,38.74
2019-05-06T19:52:43.046Z,38.57
2019-05-06T19:55:12.340Z,38.68
2019-05-06T19:57:38.155Z,38.82
2019-05-06T20:00:05.607Z,38.74
2019-05-06T20:02:33.062Z,38.80
2019-05-06T20:05:03.221Z,39.05
2019-05-06T20:07:30.351Z,39.31
2019-05-06T20:10:08.577Z,39.52
2019-05-06T20:12:38.772Z,39.45
2019-05-06T20:15:13.336Z,39.66
2019-05-06T20:17:39.158Z,39.86
2019-05-06T20:20:06.667Z,40.22
2019-05-06T20:22:34.114Z,40.34
2019-05-06T20:25:03.024Z,40.57
2019-05-06T20:27:29.144Z,40.76
2019-05-06T20:29:56.598Z,40.85
2019-05-06T20:32:24.138Z,41.25
2019-05-06T20:34:51.619Z,41.34
2019-05-06T20:37:19.062Z,41.68
2019-05-06T20:39:46.598Z,42.19
2019-05-06T20:42:14.043Z,42.73
2019-05-06T20:44:43.309Z,43.31
2019-05-06T20:47:09.191Z,43.93
2019-05-06T20:49:36.644Z,44.15
2019-05-06T20:52:04.129Z,44.48
2019-05-06T20:58:02.755Z,44.75
2019-05-06T21:00:29.238Z,44.82
2019-05-06T21:02:56.730Z,45.12
2019-05-06T21:05:24.184Z,45.18
2019-05-06T21:07:52.601Z,45.49
2019-05-06T21:10:19.287Z,45.34
2019-05-06T21:12:46.764Z,45.45
2019-05-06T21:15:14.227Z,45.54
2019-05-06T21:17:42.054Z,45.80
2019-05-06T21:20:09.333Z,45.61
2019-05-06T21:22:36.803Z,45.62
2019-05-06T21:25:04.251Z,45.52
2019-05-06T21:27:31.790Z,45.44
2019-05-06T21:29:59.265Z,45.82
2019-05-06T21:32:26.737Z,46.26
2019-05-06T21:34:54.185Z,46.31
2019-05-06T21:37:22.975Z,46.40
2019-05-06T21:39:49.102Z,46.65
2019-05-06T21:42:16.556Z,46.71
2019-05-06T21:44:44.036Z,47.11
2019-05-06T21:47:11.487Z,46.97
2019-05-06T21:49:38.935Z,47.21
2019-05-06T21:52:06.396Z,47.17
2019-05-06T21:54:33.843Z,47.91
2019-05-06T21:57:02.979Z,48.17
2019-05-06T21:59:28.871Z,48.71
2019-05-06T22:01:56.520Z,48.54
2019-05-06T22:04:24.007Z,48.50
2019-05-06T22:06:52.452Z,48.05
2019-05-06T22:09:18.929Z,48.37
2019-05-06T22:11:46.387Z,48.78
2019-05-06T22:14:13.862Z,49.07
2019-05-06T22:16:43.686Z,49.27
2019-05-06T22:19:11.920Z,49.09
2019-05-06T22:21:37.110Z,49.34
2019-05-06T22:24:04.881Z,49.56
2019-05-06T22:26:32.602Z,50.06
2019-05-06T22:29:01.871Z,50.39
2019-05-06T22:31:27.462Z,50.21
2019-05-06T22:33:55.481Z,50.10
2019-05-06T22:36:24.213Z,50.55
2019-05-06T22:38:52.971Z,50.77
2019-05-06T22:41:19.211Z,50.98
2019-05-06T22:43:46.637Z,50.95
2019-05-06T22:46:14.095Z,50.96
2019-05-06T22:48:43.309Z,50.71
2019-05-06T22:51:09.166Z,51.09
2019-05-06T22:53:36.843Z,51.14
2019-05-06T22:56:05.386Z,51.06
2019-05-06T22:58:34.545Z,51.61
2019-05-06T23:01:00.443Z,51.85
2019-05-06T23:03:31.694Z,52.28
2019-05-06T23:05:58.099Z,52.50
2019-05-06T23:08:26.858Z,52.87
2019-05-06T23:10:53.143Z,53.35
2019-05-06T23:13:22.608Z,53.42
2019-05-06T23:15:48.111Z,53.82
2019-05-06T23:18:15.588Z,53.91
2019-05-06T23:20:43.823Z,54.14
2019-05-06T23:23:12.841Z,54.20
2019-05-06T23:25:38.787Z,54.02
2019-05-06T23:28:06.983Z,54.22
2019-05-06T23:30:34.463Z,54.34
2019-05-06T23:33:03.613Z,54.26
2019-05-06T23:35:31.182Z,54.60
2019-05-06T23:38:12.084Z,54.53
2019-05-06T23:40:52.069Z,54.39
2019-05-06T23:43:29.079Z,54.51
2019-05-06T23:46:08.378Z,54.23
2019-05-06T23:48:47.655Z,53.80
2019-05-06T23:51:26.722Z,53.85
2019-05-06T23:54:05.942Z,53.75
2019-05-06T23:56:38.746Z,53.82
2019-05-06T23:59:06.212Z,54.33
